createdAt,value
2019-03-29T00:00:50.320Z,25.50
2019-03-29T00:03:21.763Z,28.03
2019-03-29T00:05:51.108Z,33.70
2019-03-29T00:08:20.519Z,35.03
2019-03-29T00:10:49.858Z,34.57
2019-03-29T00:13:19.259Z,24.80
2019-03-29T00:15:48.603Z,22.23
2019-03-29T00:18:17.931Z,21.93
2019-03-29T00:20:47.456Z,22.67
2019-03-29T00:23:19.484Z,18.17
2019-03-29T00:25:48.819Z,20.67
2019-03-29T00:28:18.165Z,21.63
2019-03-29T00:30:48.000Z,24.10
2019-03-29T00:33:17.605Z,22.90
2019-03-29T00:35:47.024Z,23.47
2019-03-29T00:38:17.652Z,25.50
2019-03-29T00:40:46.994Z,25.43
2019-03-29T00:43:20.428Z,27.40
2019-03-29T00:45:49.779Z,27.07
2019-03-29T00:48:19.108Z,30.03
2019-03-29T00:50:48.475Z,29.47
2019-03-29T00:53:20.246Z,37.50
2019-03-29T00:55:49.581Z,36.47
2019-03-29T00:58:18.925Z,24.30
2019-03-29T01:00:48.344Z,26.93
2019-03-29T01:03:17.764Z,25.30
2019-03-29T01:05:47.245Z,25.10
2019-03-29T01:08:16.746Z,28.33
2019-03-29T01:10:46.084Z,26.53
2019-03-29T01:13:17.310Z,26.80
2019-03-29T01:15:46.639Z,28.17
2019-03-29T01:18:19.274Z,28.73
2019-03-29T01:20:48.616Z,31.70
2019-03-29T01:23:20.042Z,30.87
2019-03-29T01:25:49.367Z,29.77
2019-03-29T01:28:18.711Z,32.70
2019-03-29T01:30:48.252Z,31.40
2019-03-29T01:33:18.375Z,38.10
2019-03-29T01:35:47.701Z,31.80
2019-03-29T01:38:22.229Z,31.30
2019-03-29T01:40:51.191Z,29.67
2019-03-29T01:43:20.631Z,31.10
2019-03-29T01:45:50.051Z,28.57
2019-03-29T01:48:19.395Z,28.33
2019-03-29T01:50:48.728Z,30.90
2019-03-29T01:53:18.395Z,32.50
2019-03-29T01:55:48.161Z,36.40
2019-03-29T01:58:18.328Z,49.53
2019-03-29T02:00:47.657Z,42.33
2019-03-29T02:03:17.227Z,38.40
2019-03-29T02:05:46.564Z,37.67
2019-03-29T02:08:18.967Z,41.40
2019-03-29T02:10:49.032Z,41.33
2019-03-29T02:13:20.487Z,41.33
2019-03-29T02:15:50.012Z,46.17
2019-03-29T02:18:19.351Z,41.97
2019-03-29T02:20:50.010Z,31.90
2019-03-29T02:23:19.866Z,31.87
2019-03-29T02:25:49.283Z,33.57
2019-03-29T02:28:19.041Z,36.23
2019-03-29T02:30:48.717Z,39.23
2019-03-29T02:33:19.573Z,38.20
2019-03-29T02:35:49.451Z,38.97
2019-03-29T02:38:18.818Z,38.37
2019-03-29T02:40:48.157Z,38.27
2019-03-29T02:43:17.518Z,36.73
2019-03-29T02:45:46.847Z,37.43
2019-03-29T02:48:17.032Z,38.70
2019-03-29T02:50:46.853Z,39.60
2019-03-29T02:53:16.283Z,37.90
2019-03-29T02:55:45.772Z,35.07
2019-03-29T02:58:16.562Z,32.20
2019-03-29T03:00:45.966Z,34.50
2019-03-29T03:03:16.400Z,36.00
2019-03-29T03:05:45.729Z,33.77
2019-03-29T03:08:16.506Z,36.93
2019-03-29T03:10:45.835Z,35.30
2019-03-29T03:13:16.404Z,34.87
2019-03-29T03:15:45.737Z,35.30
2019-03-29T03:18:15.151Z,34.70
2019-03-29T03:20:44.481Z,34.97
2019-03-29T03:23:14.111Z,36.00
2019-03-29T03:25:43.476Z,33.57
2019-03-29T03:28:12.927Z,35.80
2019-03-29T03:30:42.343Z,34.97
2019-03-29T03:33:11.836Z,36.43
2019-03-29T03:35:41.283Z,34.10
2019-03-29T03:38:10.673Z,35.33
2019-03-29T03:40:40.020Z,36.33
2019-03-29T03:43:09.341Z,36.73
2019-03-29T03:45:38.662Z,33.37
2019-03-29T03:48:08.135Z,31.43
2019-03-29T03:50:42.020Z,34.43
2019-03-29T03:53:11.977Z,34.83
2019-03-29T03:55:42.223Z,35.57
2019-03-29T03:58:12.472Z,36.30
2019-03-29T04:00:54.172Z,33.60
2019-03-29T04:03:23.883Z,34.70
2019-03-29T04:05:53.490Z,35.03
2019-03-29T04:08:23.038Z,32.87
2019-03-29T04:10:52.358Z,33.67
2019-03-29T04:13:21.756Z,34.03
2019-03-29T04:15:51.240Z,34.03
2019-03-29T04:18:20.641Z,31.13
2019-03-29T04:20:50.126Z,33.47
2019-03-29T04:23:19.443Z,38.37
2019-03-29T04:25:48.787Z,40.60
2019-03-29T04:28:18.112Z,37.17
2019-03-29T04:30:47.446Z,38.07
2019-03-29T04:33:16.769Z,54.80
2019-03-29T04:35:46.275Z,69.93
2019-03-29T04:38:15.689Z,64.40
2019-03-29T04:40:45.168Z,65.10
2019-03-29T04:43:14.502Z,50.97
2019-03-29T04:45:43.993Z,48.13
2019-03-29T04:48:13.397Z,44.20
2019-03-29T04:50:42.752Z,35.00
2019-03-29T04:53:12.101Z,35.47
2019-03-29T04:55:41.508Z,36.07
2019-03-29T04:58:10.921Z,35.13
2019-03-29T05:00:40.264Z,34.00
2019-03-29T05:03:09.586Z,32.90
2019-03-29T05:05:38.937Z,34.30
2019-03-29T05:08:08.290Z,34.20
2019-03-29T05:10:37.686Z,33.00
2019-03-29T05:13:07.018Z,33.70
2019-03-29T05:15:36.343Z,36.17
2019-03-29T05:18:05.711Z,38.77
2019-03-29T05:20:35.040Z,37.07
2019-03-29T05:23:04.371Z,37.13
2019-03-29T05:25:34.040Z,36.83
2019-03-29T05:28:03.439Z,37.97
2019-03-29T05:30:32.855Z,36.67
2019-03-29T05:33:02.172Z,36.70
2019-03-29T05:35:31.568Z,35.10
2019-03-29T05:38:00.893Z,34.70
2019-03-29T05:40:35.249Z,29.30
2019-03-29T05:43:01.311Z,35.03
2019-03-29T05:45:30.651Z,34.97
2019-03-29T05:47:59.965Z,34.83
2019-03-29T05:50:29.308Z,34.87
2019-03-29T05:52:58.627Z,36.00
2019-03-29T05:55:32.880Z,34.07
2019-03-29T05:57:59.033Z,36.60
2019-03-29T06:00:28.369Z,39.60
2019-03-29T06:02:57.724Z,39.57
2019-03-29T06:05:27.125Z,38.87
2019-03-29T06:07:56.440Z,40.00
2019-03-29T06:10:25.767Z,41.67
2019-03-29T06:12:55.076Z,38.13
2019-03-29T06:15:24.396Z,41.37
2019-03-29T06:17:53.721Z,35.90
2019-03-29T06:20:23.058Z,39.93
2019-03-29T06:23:05.740Z,36.27
2019-03-29T06:25:35.286Z,36.57
2019-03-29T06:28:04.869Z,33.10
2019-03-29T06:30:34.439Z,37.00
2019-03-29T06:33:03.752Z,32.83
2019-03-29T06:35:36.808Z,33.37
2019-03-29T06:38:08.237Z,33.40
2019-03-29T06:40:37.572Z,35.70
2019-03-29T06:43:06.959Z,34.10
2019-03-29T06:45:47.387Z,34.60
2019-03-29T06:48:07.515Z,30.33
2019-03-29T06:50:36.906Z,32.93
2019-03-29T06:53:06.357Z,35.20
2019-03-29T06:55:35.709Z,40.97
2019-03-29T06:58:05.128Z,35.50
2019-03-29T07:00:34.531Z,31.40
2019-03-29T07:03:03.935Z,29.23
2019-03-29T07:05:33.795Z,31.40
2019-03-29T07:08:03.195Z,28.67
2019-03-29T07:10:33.547Z,26.37
2019-03-29T07:13:02.964Z,24.47
2019-03-29T07:15:32.454Z,28.00
2019-03-29T07:18:04.199Z,27.43
2019-03-29T07:20:33.532Z,27.60
2019-03-29T07:23:02.859Z,29.23
2019-03-29T07:25:32.168Z,26.17
2019-03-29T07:28:01.714Z,26.27
2019-03-29T07:30:31.184Z,28.27
2019-03-29T07:33:00.515Z,28.50
2019-03-29T07:35:29.845Z,26.30
2019-03-29T07:37:59.201Z,24.80
2019-03-29T07:40:31.629Z,25.70
2019-03-29T07:43:01.040Z,22.00
2019-03-29T07:45:30.435Z,22.80
2019-03-29T07:47:59.772Z,24.07
2019-03-29T07:50:29.173Z,23.30
2019-03-29T07:52:58.510Z,24.97
2019-03-29T07:55:27.832Z,26.93
2019-03-29T07:57:57.260Z,25.47
2019-03-29T08:00:26.585Z,25.63
2019-03-29T08:02:55.917Z,17.73
2019-03-29T08:05:25.308Z,18.47
2019-03-29T08:07:54.823Z,16.90
2019-03-29T08:10:29.140Z,17.90
2019-03-29T08:12:55.366Z,12.80
2019-03-29T08:15:24.692Z,14.37
2019-03-29T08:17:55.114Z,13.50
2019-03-29T08:20:40.244Z,12.97
2019-03-29T08:22:55.484Z,13.10
2019-03-29T08:25:24.816Z,12.43
2019-03-29T08:27:54.174Z,13.80
2019-03-29T08:30:23.640Z,10.90
2019-03-29T08:32:52.972Z,9.90
2019-03-29T08:35:22.303Z,12.77
2019-03-29T08:37:51.636Z,13.63
2019-03-29T08:40:21.036Z,15.20
2019-03-29T08:42:50.395Z,11.13
2019-03-29T08:45:19.716Z,10.50
2019-03-29T08:47:49.059Z,9.67
2019-03-29T08:50:18.376Z,10.00
2019-03-29T08:52:47.728Z,9.27
2019-03-29T08:55:17.815Z,9.53
2019-03-29T08:57:52.194Z,7.13
2019-03-29T09:00:31.108Z,10.00
2019-03-29T09:03:00.714Z,8.77
2019-03-29T09:05:30.221Z,8.90
2019-03-29T09:08:00.351Z,9.10
2019-03-29T09:10:29.770Z,8.67
2019-03-29T09:12:59.341Z,8.30
2019-03-29T09:15:28.766Z,7.40
2019-03-29T09:17:59.966Z,7.10
2019-03-29T09:20:29.480Z,7.37
2019-03-29T09:22:58.834Z,7.10
2019-03-29T09:25:31.378Z,7.10
2019-03-29T09:28:00.707Z,6.93
2019-03-29T09:30:30.125Z,6.73
2019-03-29T09:32:59.677Z,8.00
2019-03-29T09:35:29.060Z,6.77
2019-03-29T09:37:58.407Z,7.60
2019-03-29T09:40:27.891Z,7.50
2019-03-29T09:43:07.359Z,8.23
2019-03-29T09:45:28.444Z,8.43
2019-03-29T09:47:57.877Z,9.03
2019-03-29T09:50:27.316Z,8.30
2019-03-29T09:52:56.665Z,8.57
2019-03-29T09:55:25.992Z,8.30
2019-03-29T09:57:55.483Z,8.63
2019-03-29T10:00:24.892Z,9.20
2019-03-29T10:02:54.240Z,9.47
2019-03-29T10:05:23.636Z,9.43
2019-03-29T10:07:52.965Z,8.93
2019-03-29T10:10:28.147Z,7.93
2019-03-29T10:12:57.537Z,8.73
2019-03-29T10:15:29.928Z,8.83
2019-03-29T10:17:59.348Z,9.10
2019-03-29T10:20:28.684Z,8.93
2019-03-29T10:22:58.062Z,9.30
2019-03-29T10:25:27.416Z,9.23
2019-03-29T10:27:56.967Z,9.17
2019-03-29T10:30:46.295Z,7.77
2019-03-29T10:33:14.389Z,9.13
2019-03-29T10:35:52.025Z,7.63
2019-03-29T10:38:17.950Z,8.80
2019-03-29T10:40:46.226Z,8.73
2019-03-29T10:43:15.677Z,9.30
2019-03-29T10:45:45.082Z,8.93
2019-03-29T10:48:14.421Z,8.80
2019-03-29T10:50:43.776Z,9.30
2019-03-29T10:53:13.112Z,9.27
2019-03-29T10:55:45.002Z,9.20
2019-03-29T10:58:16.157Z,8.90
2019-03-29T11:00:45.501Z,8.03
2019-03-29T11:03:20.732Z,9.97
2019-03-29T11:05:50.458Z,9.13
2019-03-29T11:08:19.789Z,9.30
2019-03-29T11:10:49.136Z,8.93
2019-03-29T11:13:18.533Z,9.47
2019-03-29T11:15:47.882Z,8.70
2019-03-29T11:18:17.204Z,9.27
2019-03-29T11:20:46.666Z,8.33
2019-03-29T11:23:17.496Z,8.90
2019-03-29T11:25:48.723Z,9.43
2019-03-29T11:28:18.566Z,8.70
2019-03-29T11:30:48.029Z,9.40
2019-03-29T11:33:17.540Z,10.20
2019-03-29T11:35:47.148Z,8.80
2019-03-29T11:38:19.216Z,8.90
2019-03-29T11:40:48.597Z,9.67
2019-03-29T11:43:26.739Z,8.60
2019-03-29T11:45:49.065Z,9.20
2019-03-29T11:48:18.413Z,8.90
2019-03-29T11:50:47.820Z,9.47
2019-03-29T11:53:17.314Z,8.70
2019-03-29T11:55:46.653Z,9.63
2019-03-29T11:58:16.040Z,9.47
2019-03-29T12:00:45.464Z,9.97
2019-03-29T12:03:15.228Z,9.90
2019-03-29T12:05:44.568Z,8.77
2019-03-29T12:08:14.002Z,9.70
2019-03-29T12:10:43.431Z,10.90
2019-03-29T12:13:12.853Z,10.20
2019-03-29T12:15:42.301Z,9.97
2019-03-29T12:18:11.636Z,10.73
2019-03-29T12:20:41.224Z,10.60
2019-03-29T12:23:10.556Z,9.90
2019-03-29T12:25:39.925Z,10.67
2019-03-29T12:28:09.373Z,9.70
2019-03-29T12:30:41.957Z,11.10
2019-03-29T12:33:11.392Z,11.20
2019-03-29T12:35:40.737Z,10.70
2019-03-29T12:38:10.081Z,11.43
2019-03-29T12:40:39.400Z,10.23
2019-03-29T12:43:12.207Z,10.40
2019-03-29T12:45:39.817Z,12.23
2019-03-29T12:48:09.203Z,11.67
2019-03-29T12:50:38.681Z,11.40
2019-03-29T12:53:08.004Z,10.80
2019-03-29T12:55:37.435Z,10.70
2019-03-29T12:58:08.779Z,10.90
2019-03-29T13:00:38.122Z,11.30
2019-03-29T13:03:07.529Z,11.07
2019-03-29T13:05:36.883Z,11.40
2019-03-29T13:08:06.320Z,10.33
2019-03-29T13:10:35.818Z,10.30
2019-03-29T13:13:05.294Z,11.70
2019-03-29T13:15:34.625Z,9.80
2019-03-29T13:18:04.060Z,10.53
2019-03-29T13:20:33.449Z,12.10
2019-03-29T13:23:02.796Z,10.63
2019-03-29T13:25:32.220Z,10.30
2019-03-29T13:28:01.696Z,9.57
2019-03-29T13:30:31.207Z,10.50
2019-03-29T13:33:00.673Z,10.30
2019-03-29T13:35:30.109Z,11.40
2019-03-29T13:37:59.434Z,10.50
2019-03-29T13:40:28.903Z,10.50
2019-03-29T13:42:59.016Z,10.27
2019-03-29T13:45:29.209Z,11.27
2019-03-29T13:48:01.859Z,11.50
2019-03-29T13:50:31.280Z,10.60
2019-03-29T13:53:01.264Z,10.37
2019-03-29T13:55:31.365Z,10.23
2019-03-29T13:58:01.656Z,10.93
2019-03-29T14:00:31.223Z,11.07
2019-03-29T14:03:03.691Z,11.83
2019-03-29T14:05:34.205Z,10.77
2019-03-29T14:08:04.489Z,9.33
2019-03-29T14:10:34.753Z,10.37
2019-03-29T14:13:05.059Z,10.23
2019-03-29T14:15:35.360Z,10.37
2019-03-29T14:18:24.379Z,11.00
2019-03-29T14:20:54.662Z,10.90
2019-03-29T14:23:24.197Z,10.13
2019-03-29T14:25:54.522Z,10.53
2019-03-29T14:28:23.890Z,9.77
2019-03-29T14:30:54.209Z,10.77
2019-03-29T14:33:24.769Z,11.47
2019-03-29T14:36:13.686Z,10.57
2019-03-29T14:38:43.104Z,11.13
2019-03-29T14:41:12.528Z,11.47
2019-03-29T14:43:42.023Z,10.03
2019-03-29T14:46:11.385Z,11.37
2019-03-29T14:48:40.729Z,10.80
2019-03-29T14:54:39.520Z,11.27
2019-03-29T14:57:08.893Z,10.70
2019-03-29T14:59:38.232Z,10.40
2019-03-29T15:02:07.581Z,9.60
2019-03-29T15:04:36.915Z,9.87
2019-03-29T15:07:06.387Z,10.13
2019-03-29T15:09:36.051Z,9.40
2019-03-29T15:12:07.083Z,9.23
2019-03-29T15:14:36.536Z,9.70
2019-03-29T15:17:05.972Z,10.00
2019-03-29T15:19:35.309Z,9.80
2019-03-29T15:22:04.760Z,9.90
2019-03-29T15:24:34.099Z,9.60
2019-03-29T15:27:03.523Z,9.20
2019-03-29T15:29:32.925Z,9.93
2019-03-29T15:32:02.266Z,9.43
2019-03-29T15:34:37.496Z,9.67
2019-03-29T15:37:09.910Z,10.37
2019-03-29T15:39:37.960Z,9.60
2019-03-29T15:42:07.298Z,8.80
2019-03-29T15:44:36.771Z,8.80
2019-03-29T15:47:06.180Z,9.70
2019-03-29T15:49:35.512Z,9.47
2019-03-29T15:52:05.001Z,9.43
2019-03-29T15:54:34.397Z,9.80
2019-03-29T15:57:03.762Z,9.37
2019-03-29T15:59:33.086Z,8.60
2019-03-29T16:02:02.440Z,9.80
2019-03-29T16:04:31.756Z,9.67
2019-03-29T16:07:01.186Z,9.23
2019-03-29T16:09:30.591Z,10.53
2019-03-29T16:12:00.005Z,10.10
2019-03-29T16:14:29.355Z,9.17
2019-03-29T16:16:58.677Z,9.33
2019-03-29T16:19:28.036Z,10.30
2019-03-29T16:21:57.363Z,9.30
2019-03-29T16:24:26.732Z,9.83
2019-03-29T16:26:56.070Z,10.23
2019-03-29T16:29:25.413Z,9.57
2019-03-29T16:31:54.839Z,10.83
2019-03-29T16:34:24.268Z,9.90
2019-03-29T16:36:53.742Z,9.40
2019-03-29T16:39:23.093Z,9.80
2019-03-29T16:41:52.498Z,9.03
2019-03-29T16:44:21.827Z,9.53
2019-03-29T16:46:51.163Z,9.17
2019-03-29T16:49:20.587Z,10.60
2019-03-29T16:51:49.944Z,10.37
2019-03-29T16:54:19.348Z,11.40
2019-03-29T16:56:48.800Z,10.57
2019-03-29T16:59:18.139Z,10.70
2019-03-29T17:01:47.550Z,10.60
2019-03-29T17:04:16.902Z,11.00
2019-03-29T17:06:46.307Z,11.60
2019-03-29T17:09:15.664Z,10.50
2019-03-29T17:11:44.988Z,11.10
2019-03-29T17:14:14.353Z,11.20
2019-03-29T17:16:43.688Z,11.73
2019-03-29T17:19:13.045Z,11.70
2019-03-29T17:21:42.501Z,10.37
2019-03-29T17:24:23.895Z,11.80
2019-03-29T17:26:53.285Z,11.63
2019-03-29T17:29:34.951Z,10.73
2019-03-29T17:32:37.276Z,11.13
2019-03-29T17:35:13.508Z,10.40
2019-03-29T17:37:54.973Z,9.97
2019-03-29T17:40:24.392Z,13.67
2019-03-29T17:42:53.741Z,11.03
2019-03-29T17:45:23.092Z,10.57
2019-03-29T17:47:52.424Z,9.37
2019-03-29T17:50:25.138Z,9.17
2019-03-29T17:52:52.828Z,10.77
2019-03-29T17:55:22.258Z,10.60
2019-03-29T17:57:51.605Z,10.80
2019-03-29T18:00:22.757Z,12.00
2019-03-29T18:02:52.176Z,10.60
2019-03-29T18:05:21.536Z,11.87
2019-03-29T18:07:50.950Z,12.00
2019-03-29T18:10:20.332Z,10.57
2019-03-29T18:12:49.740Z,9.47
2019-03-29T18:15:20.048Z,10.07
2019-03-29T18:17:49.400Z,10.87
2019-03-29T18:20:19.030Z,11.10
2019-03-29T18:22:48.368Z,10.90
2019-03-29T18:25:17.784Z,11.53
2019-03-29T18:27:47.116Z,10.43
2019-03-29T18:30:21.716Z,10.80
2019-03-29T18:32:51.143Z,17.10
2019-03-29T18:35:20.524Z,11.47
2019-03-29T18:37:50.082Z,10.80
2019-03-29T18:40:26.415Z,11.10
2019-03-29T18:42:56.176Z,10.80
2019-03-29T18:45:25.534Z,11.67
2019-03-29T18:47:54.884Z,13.20
2019-03-29T18:50:24.227Z,10.20
2019-03-29T18:52:53.551Z,11.10
2019-03-29T18:55:22.917Z,10.40
2019-03-29T18:57:52.275Z,12.00
2019-03-29T19:00:30.484Z,10.97
2019-03-29T19:02:59.925Z,8.90
2019-03-29T19:05:29.368Z,11.23
2019-03-29T19:07:58.817Z,12.13
2019-03-29T19:10:28.247Z,9.53
2019-03-29T19:12:57.589Z,13.13
2019-03-29T19:15:27.109Z,9.53
2019-03-29T19:17:56.536Z,9.20
2019-03-29T19:20:27.871Z,10.30
2019-03-29T19:22:56.951Z,8.40
2019-03-29T19:25:26.395Z,9.40
2019-03-29T19:27:55.801Z,10.17
2019-03-29T19:30:25.436Z,9.67
2019-03-29T19:32:54.853Z,11.30
2019-03-29T19:35:24.276Z,11.60
2019-03-29T19:37:53.616Z,7.77
2019-03-29T19:40:22.974Z,9.80
2019-03-29T19:42:52.299Z,12.80
2019-03-29T19:45:21.732Z,12.10
2019-03-29T19:47:51.072Z,8.53
2019-03-29T19:50:21.058Z,10.73
2019-03-29T19:52:50.462Z,9.43
2019-03-29T19:55:19.981Z,9.43
2019-03-29T19:57:49.339Z,14.07
2019-03-29T20:00:19.218Z,13.57
2019-03-29T20:02:48.586Z,12.13
2019-03-29T20:05:28.421Z,11.60
2019-03-29T20:07:57.991Z,13.73
2019-03-29T20:10:27.572Z,10.20
2019-03-29T20:12:57.534Z,7.57
2019-03-29T20:15:27.045Z,8.90
2019-03-29T20:17:56.451Z,8.60
2019-03-29T20:20:26.678Z,8.67
2019-03-29T20:22:57.199Z,8.70
2019-03-29T20:25:26.932Z,11.50
2019-03-29T20:27:58.527Z,11.60
2019-03-29T20:30:28.464Z,11.13
2019-03-29T20:32:57.824Z,11.63
2019-03-29T20:35:27.263Z,10.70
2019-03-29T20:37:56.619Z,10.53
2019-03-29T20:40:26.068Z,8.80
2019-03-29T20:42:55.404Z,9.30
2019-03-29T20:45:24.820Z,10.83
2019-03-29T20:47:54.178Z,12.37
2019-03-29T20:50:23.593Z,14.80
2019-03-29T20:52:52.959Z,12.13
2019-03-29T20:55:25.464Z,9.10
2019-03-29T20:57:54.804Z,11.67
2019-03-29T21:00:24.216Z,10.77
2019-03-29T21:02:53.566Z,10.90
2019-03-29T21:05:22.971Z,8.53
2019-03-29T21:07:54.947Z,10.30
2019-03-29T21:10:23.465Z,10.43
2019-03-29T21:12:52.838Z,9.83
2019-03-29T21:15:22.371Z,12.23
2019-03-29T21:17:56.991Z,10.33
2019-03-29T21:20:22.788Z,36.57
2019-03-29T21:22:52.137Z,9.70
2019-03-29T21:25:21.477Z,10.90
2019-03-29T21:27:50.819Z,13.17
2019-03-29T21:30:20.479Z,8.17
2019-03-29T21:32:49.833Z,8.63
2019-03-29T21:35:19.184Z,10.07
2019-03-29T21:37:48.620Z,12.67
2019-03-29T21:40:18.176Z,11.47
2019-03-29T21:42:47.528Z,11.67
2019-03-29T21:45:28.086Z,10.07
2019-03-29T21:48:02.008Z,12.37
2019-03-29T21:50:19.648Z,10.90
2019-03-29T21:52:48.987Z,11.83
2019-03-29T21:55:18.312Z,13.17
2019-03-29T21:57:47.676Z,10.20
2019-03-29T22:00:17.193Z,13.13
2019-03-29T22:02:46.613Z,14.00
2019-03-29T22:05:16.020Z,12.33
2019-03-29T22:07:45.453Z,13.17
2019-03-29T22:10:14.851Z,13.13
2019-03-29T22:12:44.200Z,13.03
2019-03-29T22:15:14.474Z,11.37
2019-03-29T22:17:43.818Z,8.97
2019-03-29T22:20:13.337Z,14.37
2019-03-29T22:22:42.761Z,9.77
2019-03-29T22:25:12.548Z,13.30
2019-03-29T22:27:41.907Z,37.57
2019-03-29T22:30:11.551Z,22.97
2019-03-29T22:32:40.912Z,14.40
2019-03-29T22:35:10.401Z,13.40
2019-03-29T22:37:39.740Z,8.47
2019-03-29T22:40:09.595Z,13.33
2019-03-29T22:42:39.144Z,33.47
2019-03-29T22:45:09.342Z,9.27
2019-03-29T22:47:38.679Z,10.40
2019-03-29T22:50:08.561Z,8.77
2019-03-29T22:52:39.983Z,16.23
2019-03-29T22:55:10.118Z,12.00
2019-03-29T22:57:39.457Z,10.93
2019-03-29T23:00:16.076Z,17.77
2019-03-29T23:02:45.510Z,13.80
2019-03-29T23:05:15.020Z,13.90
2019-03-29T23:07:44.401Z,13.17
2019-03-29T23:10:13.904Z,15.23
2019-03-29T23:12:43.293Z,18.13
2019-03-29T23:15:13.054Z,17.13
2019-03-29T23:17:42.480Z,14.60
2019-03-29T23:20:11.997Z,13.43
2019-03-29T23:22:41.392Z,13.07
2019-03-29T23:25:10.876Z,9.70
2019-03-29T23:27:40.229Z,9.80
2019-03-29T23:30:10.175Z,26.30
2019-03-29T23:32:39.530Z,9.77
2019-03-29T23:35:09.059Z,15.33
2019-03-29T23:37:38.449Z,13.67
2019-03-29T23:40:08.051Z,13.10
2019-03-29T23:42:37.422Z,13.07
2019-03-29T23:45:06.988Z,14.60
2019-03-29T23:47:36.359Z,14.07
2019-03-29T23:50:06.086Z,14.90
2019-03-29T23:52:35.457Z,16.30
2019-03-29T23:55:05.088Z,11.70
2019-03-29T23:57:34.623Z,18.43
